createdAt,value
2022-07-29T00:00:59.758Z,101834.59
2022-07-29T00:03:26.388Z,101843.09
2022-07-29T00:05:54.144Z,101842.25
2022-07-29T00:08:20.967Z,101838.84
2022-07-29T00:10:47.583Z,101831.13
2022-07-29T00:13:14.148Z,101838.03
2022-07-29T00:15:40.636Z,101835.97
2022-07-29T00:18:07.195Z,101835.88
2022-07-29T00:20:33.839Z,101838.41
2022-07-29T00:23:00.333Z,101839.34
2022-07-29T00:25:26.823Z,101834.00
2022-07-29T00:27:53.301Z,101839.13
2022-07-29T00:30:19.778Z,101829.59
2022-07-29T00:32:46.280Z,101833.03
2022-07-29T00:35:31.588Z,101820.63
2022-07-29T00:38:00.137Z,101837.25
2022-07-29T00:40:28.682Z,101830.50
2022-07-29T00:42:55.234Z,101832.47
2022-07-29T00:45:23.098Z,101834.44
2022-07-29T00:47:49.879Z,101831.25
2022-07-29T00:50:16.378Z,101834.59
2022-07-29T00:52:43.338Z,101835.59
2022-07-29T00:55:15.342Z,101842.75
2022-07-29T00:57:42.768Z,101843.78
2022-07-29T01:00:12.418Z,101845.03
2022-07-29T01:02:39.103Z,101836.88
2022-07-29T01:05:06.848Z,101835.88
2022-07-29T01:07:35.371Z,101840.09
2022-07-29T01:10:03.670Z,101843.91
2022-07-29T01:12:33.877Z,101838.50
2022-07-29T01:15:01.895Z,101842.09
2022-07-29T01:17:53.427Z,101838.41
2022-07-29T01:20:41.201Z,101847.81
2022-07-29T01:23:07.659Z,101838.41
2022-07-29T01:25:56.322Z,101838.25
2022-07-29T01:28:46.537Z,101846.00
2022-07-29T01:31:22.810Z,101843.56
2022-07-29T01:33:59.205Z,101843.38
2022-07-29T01:36:33.653Z,101831.56
2022-07-29T01:39:06.550Z,101824.41
2022-07-29T01:41:35.204Z,101828.25
2022-07-29T01:44:18.708Z,101836.97
2022-07-29T01:46:51.062Z,101826.69
2022-07-29T01:49:29.298Z,101822.13
2022-07-29T01:51:59.764Z,101823.72
2022-07-29T01:54:29.438Z,101814.72
2022-07-29T01:56:57.912Z,101816.78
2022-07-29T01:59:24.735Z,101814.22
2022-07-29T02:01:54.455Z,101816.72
2022-07-29T02:04:29.202Z,101809.84
2022-07-29T02:06:59.386Z,101813.31
2022-07-29T02:09:26.411Z,101819.00
2022-07-29T02:11:54.668Z,101808.34
2022-07-29T02:14:22.736Z,101807.91
2022-07-29T02:16:53.531Z,101808.81
2022-07-29T02:19:22.573Z,101797.41
2022-07-29T02:21:49.341Z,101802.06
2022-07-29T02:24:18.790Z,101799.28
2022-07-29T02:26:45.514Z,101801.38
2022-07-29T02:29:13.038Z,101798.66
2022-07-29T02:31:40.327Z,101799.63
2022-07-29T02:34:08.345Z,101800.22
2022-07-29T02:36:35.432Z,101795.72
2022-07-29T02:39:03.758Z,101789.75
2022-07-29T02:41:36.754Z,101794.72
2022-07-29T02:44:07.301Z,101790.28
2022-07-29T02:46:35.220Z,101779.03
2022-07-29T02:49:20.552Z,101777.13
2022-07-29T02:51:56.337Z,101782.78
2022-07-29T02:54:37.811Z,101772.28
2022-07-29T02:57:10.729Z,101778.69
2022-07-29T02:59:37.906Z,101774.13
2022-07-29T03:02:06.189Z,101779.72
2022-07-29T03:04:33.586Z,101779.13
2022-07-29T03:07:01.758Z,101779.91
2022-07-29T03:09:29.066Z,101773.91
2022-07-29T03:11:56.129Z,101776.78
2022-07-29T03:14:24.002Z,101768.81
2022-07-29T03:16:50.955Z,101776.94
2022-07-29T03:19:18.754Z,101776.03
2022-07-29T03:21:45.274Z,101769.66
2022-07-29T03:24:28.864Z,101774.97
2022-07-29T03:26:57.185Z,101777.50
2022-07-29T03:29:23.814Z,101761.69
2022-07-29T03:31:51.224Z,101769.81
2022-07-29T03:34:18.135Z,101770.38
2022-07-29T03:36:44.789Z,101764.69
2022-07-29T03:39:13.278Z,101765.19
2022-07-29T03:41:39.926Z,101761.53
2022-07-29T03:44:07.932Z,101765.81
2022-07-29T03:46:35.089Z,101769.69
2022-07-29T03:49:02.408Z,101767.31
2022-07-29T03:51:33.128Z,101766.22
2022-07-29T03:54:03.816Z,101769.44
2022-07-29T03:56:34.166Z,101761.59
2022-07-29T03:59:02.938Z,101762.47
2022-07-29T04:01:30.556Z,101772.59
2022-07-29T04:03:57.614Z,101763.41
2022-07-29T04:06:24.260Z,101769.53
2022-07-29T04:08:50.880Z,101768.47
2022-07-29T04:11:17.383Z,101755.81
2022-07-29T04:13:43.849Z,101766.66
2022-07-29T04:16:10.368Z,101762.00
2022-07-29T04:18:36.880Z,101771.97
2022-07-29T04:21:05.007Z,101770.16
2022-07-29T04:23:34.503Z,101769.38
2022-07-29T04:26:02.147Z,101758.38
2022-07-29T04:28:29.100Z,101763.63
2022-07-29T04:30:55.678Z,101759.78
2022-07-29T04:33:22.211Z,101759.53
2022-07-29T04:35:52.321Z,101755.38
2022-07-29T04:38:19.122Z,101757.00
2022-07-29T04:40:45.659Z,101754.66
2022-07-29T04:43:14.343Z,101755.50
2022-07-29T04:45:42.122Z,101750.38
2022-07-29T04:48:08.676Z,101760.00
2022-07-29T04:50:35.246Z,101756.53
2022-07-29T04:53:01.732Z,101750.75
2022-07-29T04:55:28.298Z,101762.13
2022-07-29T04:57:54.762Z,101754.78
2022-07-29T05:00:21.384Z,101753.31
2022-07-29T05:02:58.666Z,101755.13
2022-07-29T05:05:25.181Z,101745.53
2022-07-29T05:07:51.686Z,101748.34
2022-07-29T05:10:18.182Z,101750.06
2022-07-29T05:12:44.670Z,101746.69
2022-07-29T05:15:11.286Z,101748.50
2022-07-29T05:17:38.260Z,101745.06
2022-07-29T05:20:06.016Z,101747.94
2022-07-29T05:22:32.530Z,101754.09
2022-07-29T05:24:58.988Z,101752.44
2022-07-29T05:27:25.463Z,101759.03
2022-07-29T05:29:52.163Z,101755.63
2022-07-29T05:32:18.658Z,101765.19
2022-07-29T05:34:51.229Z,101765.25
2022-07-29T05:37:20.070Z,101759.84
2022-07-29T05:39:48.934Z,101751.28
2022-07-29T05:42:16.889Z,101757.31
2022-07-29T05:44:43.368Z,101766.19
2022-07-29T05:47:09.897Z,101767.16
2022-07-29T05:49:36.431Z,101772.50
2022-07-29T05:52:03.128Z,101755.75
2022-07-29T05:54:29.598Z,101760.97
2022-07-29T05:56:56.083Z,101765.38
2022-07-29T05:59:25.963Z,101759.25
2022-07-29T06:01:54.930Z,101769.69
2022-07-29T06:04:21.695Z,101761.94
2022-07-29T06:06:48.218Z,101756.72
2022-07-29T06:09:14.935Z,101759.41
2022-07-29T06:11:41.637Z,101761.09
2022-07-29T06:14:08.095Z,101753.25
2022-07-29T06:16:34.609Z,101748.81
2022-07-29T06:19:01.148Z,101754.06
2022-07-29T06:21:27.625Z,101758.53
2022-07-29T06:23:54.160Z,101753.00
2022-07-29T06:26:28.473Z,101751.97
2022-07-29T06:28:58.171Z,101759.25
2022-07-29T06:31:24.755Z,101758.44
2022-07-29T06:33:51.357Z,101757.31
2022-07-29T06:36:21.193Z,101762.81
2022-07-29T06:38:51.463Z,101765.47
2022-07-29T06:41:19.078Z,101758.41
2022-07-29T06:43:52.305Z,101763.53
2022-07-29T06:46:21.873Z,101765.13
2022-07-29T06:48:49.274Z,101760.53
2022-07-29T06:51:17.292Z,101762.13
2022-07-29T06:54:00.330Z,101760.56
2022-07-29T06:56:29.424Z,101758.63
2022-07-29T06:58:55.980Z,101761.16
2022-07-29T07:01:22.625Z,101762.94
2022-07-29T07:03:49.263Z,101760.13
2022-07-29T07:06:15.909Z,101762.69
2022-07-29T07:08:42.410Z,101763.91
2022-07-29T07:11:09.589Z,101760.13
2022-07-29T07:13:36.543Z,101750.38
2022-07-29T07:16:03.952Z,101745.09
2022-07-29T07:18:30.856Z,101746.06
2022-07-29T07:20:59.062Z,101745.47
2022-07-29T07:23:25.891Z,101749.03
2022-07-29T07:25:52.483Z,101744.22
2022-07-29T07:28:19.609Z,101746.38
2022-07-29T07:30:52.041Z,101741.00
2022-07-29T07:33:18.605Z,101738.28
2022-07-29T07:35:45.351Z,101737.38
2022-07-29T07:38:11.854Z,101743.00
2022-07-29T07:40:38.441Z,101741.34
2022-07-29T07:43:05.010Z,101744.06
2022-07-29T07:45:33.623Z,101739.06
2022-07-29T07:48:00.376Z,101738.44
2022-07-29T07:50:27.114Z,101739.63
2022-07-29T07:52:56.054Z,101738.25
2022-07-29T07:55:22.601Z,101735.63
2022-07-29T07:57:49.134Z,101728.47
2022-07-29T08:00:17.100Z,101727.97
2022-07-29T08:02:44.158Z,101731.56
2022-07-29T08:05:12.589Z,101725.91
2022-07-29T08:07:39.869Z,101727.69
2022-07-29T08:10:06.884Z,101717.59
2022-07-29T08:12:33.350Z,101717.34
2022-07-29T08:14:59.901Z,101712.63
2022-07-29T08:17:27.557Z,101716.41
2022-07-29T08:19:54.067Z,101715.84
2022-07-29T08:22:20.762Z,101723.59
2022-07-29T08:24:53.418Z,101711.59
2022-07-29T08:27:42.337Z,101714.09
2022-07-29T08:30:08.555Z,101709.25
2022-07-29T08:32:53.120Z,101711.59
2022-07-29T08:35:21.765Z,101711.28
2022-07-29T08:37:48.438Z,101713.69
2022-07-29T08:40:15.412Z,101710.28
2022-07-29T08:42:41.967Z,101717.84
2022-07-29T08:45:09.028Z,101716.50
2022-07-29T08:47:39.574Z,101709.25
2022-07-29T08:50:07.670Z,101713.41
2022-07-29T08:52:37.392Z,101711.25
2022-07-29T08:55:06.386Z,101712.00
2022-07-29T08:57:33.853Z,101705.44
2022-07-29T09:00:07.925Z,101704.41
2022-07-29T09:02:41.482Z,101711.78
2022-07-29T09:05:08.775Z,101704.44
2022-07-29T09:07:35.379Z,101699.63
2022-07-29T09:10:02.641Z,101704.81
2022-07-29T09:12:32.738Z,101697.63
2022-07-29T09:15:01.376Z,101700.50
2022-07-29T09:17:41.954Z,101702.09
2022-07-29T09:20:14.000Z,101704.19
2022-07-29T09:22:42.220Z,101695.34
2022-07-29T09:25:09.124Z,101689.50
2022-07-29T09:27:35.674Z,101688.50
2022-07-29T09:30:06.374Z,101686.03
2022-07-29T09:32:33.886Z,101684.25
2022-07-29T09:35:21.333Z,101685.47
2022-07-29T09:37:48.648Z,101692.66
2022-07-29T09:40:17.622Z,101695.09
2022-07-29T09:42:44.932Z,101684.22
2022-07-29T09:45:12.349Z,101682.28
2022-07-29T09:47:47.921Z,101688.88
2022-07-29T09:50:14.711Z,101682.56
2022-07-29T09:52:49.629Z,101680.19
2022-07-29T09:55:18.391Z,101676.81
2022-07-29T09:57:47.351Z,101672.22
2022-07-29T10:00:19.015Z,101665.50
2022-07-29T10:02:47.541Z,101678.19
2022-07-29T10:05:22.916Z,101669.94
2022-07-29T10:07:55.234Z,101670.06
2022-07-29T10:10:29.982Z,101669.72
2022-07-29T10:13:01.802Z,101679.19
2022-07-29T10:15:38.082Z,101668.78
2022-07-29T10:18:05.173Z,101666.09
2022-07-29T10:20:31.919Z,101674.25
2022-07-29T10:22:58.605Z,101671.19
2022-07-29T10:25:26.586Z,101670.41
2022-07-29T10:27:54.193Z,101671.91
2022-07-29T10:30:22.099Z,101662.44
2022-07-29T10:33:00.118Z,101663.13
2022-07-29T10:35:50.912Z,101664.31
2022-07-29T10:38:46.083Z,101661.03
2022-07-29T10:42:03.598Z,101662.88
2022-07-29T10:44:30.701Z,101652.53
2022-07-29T10:46:57.501Z,101664.16
2022-07-29T10:49:27.248Z,101661.38
2022-07-29T10:52:08.337Z,101650.66
2022-07-29T10:54:43.667Z,101657.34
2022-07-29T10:57:13.979Z,101646.78
2022-07-29T10:59:42.855Z,101649.25
2022-07-29T11:02:41.893Z,101646.69
2022-07-29T11:05:10.876Z,101656.69
2022-07-29T11:07:45.533Z,101639.03
2022-07-29T11:10:16.421Z,101645.63
2022-07-29T11:12:42.946Z,101650.88
2022-07-29T11:15:18.344Z,101645.59
2022-07-29T11:17:54.431Z,101648.16
2022-07-29T11:20:47.811Z,101646.84
2022-07-29T11:23:36.536Z,101644.53
2022-07-29T11:26:28.459Z,101646.03
2022-07-29T11:29:14.444Z,101632.94
2022-07-29T11:31:46.356Z,101646.72
2022-07-29T11:34:22.588Z,101644.84
2022-07-29T11:37:07.562Z,101651.03
2022-07-29T11:39:36.596Z,101643.56
2022-07-29T11:42:32.630Z,101637.28
2022-07-29T11:45:44.629Z,101644.97
2022-07-29T11:48:29.223Z,101641.56
2022-07-29T11:50:58.531Z,101636.78
2022-07-29T11:53:25.792Z,101633.84
2022-07-29T11:55:58.308Z,101630.81
2022-07-29T12:01:15.209Z,101633.06
2022-07-29T12:03:43.725Z,101625.72
2022-07-29T12:06:15.619Z,101634.88
2022-07-29T12:07:03.883Z,101630.06
2022-07-29T12:08:45.419Z,101619.06
2022-07-29T12:11:20.570Z,101634.00
2022-07-29T12:13:49.320Z,101638.56
2022-07-29T12:16:16.202Z,101627.72
2022-07-29T12:19:03.927Z,101635.16
2022-07-29T12:21:52.286Z,101628.72
2022-07-29T12:24:22.807Z,101632.63
2022-07-29T12:26:57.998Z,101634.22
2022-07-29T12:29:34.892Z,101626.88
2022-07-29T12:32:03.300Z,101630.16
2022-07-29T12:34:30.583Z,101638.81
2022-07-29T12:36:57.148Z,101634.25
2022-07-29T12:39:23.885Z,101627.19
2022-07-29T12:41:50.473Z,101636.78
2022-07-29T12:44:16.960Z,101624.31
2022-07-29T12:46:43.571Z,101628.81
2022-07-29T12:49:10.167Z,101622.91
2022-07-29T12:51:41.503Z,101629.66
2022-07-29T12:54:14.732Z,101625.28
2022-07-29T12:56:45.308Z,101626.41
2022-07-29T12:59:20.201Z,101627.19
2022-07-29T13:01:50.619Z,101633.03
2022-07-29T13:04:26.916Z,101625.19
2022-07-29T13:07:09.145Z,101630.38
2022-07-29T13:09:44.482Z,101631.31
2022-07-29T13:12:13.135Z,101626.44
2022-07-29T13:14:41.946Z,101628.34
2022-07-29T13:17:12.440Z,101623.59
2022-07-29T13:19:52.978Z,101614.16
2022-07-29T13:22:23.895Z,101618.00
2022-07-29T13:24:52.612Z,101610.25
2022-07-29T13:27:20.767Z,101620.69
2022-07-29T13:29:47.914Z,101616.25
2022-07-29T13:32:14.778Z,101611.09
2022-07-29T13:34:41.771Z,101607.19
2022-07-29T13:37:08.853Z,101606.38
2022-07-29T13:39:35.483Z,101598.69
2022-07-29T13:42:02.158Z,101603.00
2022-07-29T13:44:28.773Z,101595.97
2022-07-29T13:46:55.398Z,101597.66
2022-07-29T13:49:21.956Z,101595.25
2022-07-29T13:51:48.591Z,101595.50
2022-07-29T13:54:15.060Z,101595.88
2022-07-29T13:56:41.583Z,101589.16
2022-07-29T13:59:08.756Z,101600.53
2022-07-29T14:01:36.300Z,101596.06
2022-07-29T14:04:03.827Z,101586.50
2022-07-29T14:06:30.367Z,101601.72
2022-07-29T14:08:56.921Z,101599.16
2022-07-29T14:11:23.492Z,101590.34
2022-07-29T14:13:50.001Z,101594.53
2022-07-29T14:16:16.624Z,101604.44
2022-07-29T14:18:43.574Z,101593.69
2022-07-29T14:21:10.045Z,101585.13
2022-07-29T14:23:37.537Z,101585.06
2022-07-29T14:26:08.880Z,101597.63
2022-07-29T14:28:42.657Z,101594.31
2022-07-29T14:31:09.137Z,101592.22
2022-07-29T14:33:35.674Z,101589.47
2022-07-29T14:36:02.182Z,101584.13
2022-07-29T14:38:28.645Z,101588.78
2022-07-29T14:40:55.145Z,101580.72
2022-07-29T14:43:21.646Z,101584.91
2022-07-29T14:45:48.367Z,101580.59
2022-07-29T14:48:14.857Z,101582.09
2022-07-29T14:50:41.377Z,101574.84
2022-07-29T14:53:07.840Z,101576.50
2022-07-29T14:55:34.371Z,101577.38
2022-07-29T14:58:09.862Z,101577.66
2022-07-29T15:00:38.816Z,101570.75
2022-07-29T15:03:06.256Z,101577.19
2022-07-29T15:05:33.153Z,101579.34
2022-07-29T15:08:00.464Z,101576.38
2022-07-29T15:10:29.930Z,101579.91
2022-07-29T15:12:56.958Z,101585.03
2022-07-29T15:15:23.600Z,101575.97
2022-07-29T15:17:50.075Z,101576.34
2022-07-29T15:20:16.648Z,101573.72
2022-07-29T15:22:43.957Z,101567.38
2022-07-29T15:25:10.856Z,101572.94
2022-07-29T15:27:37.348Z,101567.63
2022-07-29T15:30:04.261Z,101562.91
2022-07-29T15:32:30.816Z,101561.34
2022-07-29T15:34:57.284Z,101565.25
2022-07-29T15:37:23.758Z,101567.66
2022-07-29T15:39:50.426Z,101567.34
2022-07-29T15:42:17.827Z,101560.75
2022-07-29T15:44:44.509Z,101560.66
2022-07-29T15:47:10.981Z,101551.25
2022-07-29T15:49:47.038Z,101558.78
2022-07-29T15:52:16.494Z,101553.22
2022-07-29T15:54:43.360Z,101548.81
2022-07-29T15:57:09.936Z,101541.41
2022-07-29T15:59:36.517Z,101541.44
2022-07-29T16:02:03.548Z,101545.94
2022-07-29T16:04:30.060Z,101541.63
2022-07-29T16:06:57.487Z,101541.09
2022-07-29T16:09:24.232Z,101543.34
2022-07-29T16:11:54.114Z,101539.09
2022-07-29T16:14:21.196Z,101540.91
2022-07-29T16:16:48.620Z,101541.94
2022-07-29T16:19:15.224Z,101537.94
2022-07-29T16:21:41.986Z,101544.00
2022-07-29T16:24:08.694Z,101544.47
2022-07-29T16:26:35.389Z,101546.63
2022-07-29T16:29:01.935Z,101546.13
2022-07-29T16:31:28.514Z,101535.59
2022-07-29T16:33:56.041Z,101543.19
2022-07-29T16:36:23.108Z,101534.56
2022-07-29T16:38:50.085Z,101537.59
2022-07-29T16:41:16.638Z,101536.34
2022-07-29T16:43:43.175Z,101539.72
2022-07-29T16:46:12.505Z,101551.47
2022-07-29T16:48:45.392Z,101542.06
2022-07-29T16:51:14.307Z,101532.63
2022-07-29T16:53:41.402Z,101537.16
2022-07-29T16:56:08.558Z,101521.50
2022-07-29T16:58:43.575Z,101532.09
2022-07-29T17:01:10.445Z,101531.88
2022-07-29T17:03:59.924Z,101524.72
2022-07-29T17:06:28.677Z,101530.59
2022-07-29T17:08:56.268Z,101525.50
2022-07-29T17:11:22.737Z,101524.84
2022-07-29T17:14:10.160Z,101518.75
2022-07-29T17:16:36.736Z,101521.22
2022-07-29T17:19:03.468Z,101524.78
2022-07-29T17:21:29.950Z,101523.34
2022-07-29T17:23:56.537Z,101516.91
2022-07-29T17:26:23.027Z,101517.41
2022-07-29T17:28:49.592Z,101520.94
2022-07-29T17:31:16.371Z,101517.38
2022-07-29T17:33:42.974Z,101515.81
2022-07-29T17:36:24.493Z,101526.41
2022-07-29T17:38:52.861Z,101517.97
2022-07-29T17:41:19.701Z,101521.41
2022-07-29T17:43:46.180Z,101521.00
2022-07-29T17:46:12.691Z,101522.16
2022-07-29T17:48:39.234Z,101527.28
2022-07-29T17:51:05.769Z,101515.81
2022-07-29T17:53:32.278Z,101522.16
2022-07-29T17:55:58.834Z,101523.97
2022-07-29T17:58:27.784Z,101516.63
2022-07-29T18:00:54.300Z,101521.19
2022-07-29T18:03:21.014Z,101519.75
2022-07-29T18:05:47.667Z,101519.03
2022-07-29T18:08:14.126Z,101520.13
2022-07-29T18:10:41.357Z,101522.94
2022-07-29T18:13:07.872Z,101524.09
2022-07-29T18:15:34.538Z,101523.91
2022-07-29T18:18:01.059Z,101530.81
2022-07-29T18:20:27.654Z,101531.28
2022-07-29T18:22:54.150Z,101526.84
2022-07-29T18:25:20.853Z,101520.06
2022-07-29T18:27:47.393Z,101527.50
2022-07-29T18:30:15.204Z,101532.84
2022-07-29T18:32:54.317Z,101532.88
2022-07-29T18:35:28.583Z,101522.31
2022-07-29T18:38:01.696Z,101523.09
2022-07-29T18:40:29.714Z,101524.72
2022-07-29T18:42:56.501Z,101521.78
2022-07-29T18:45:23.107Z,101520.78
2022-07-29T18:47:55.833Z,101517.50
2022-07-29T18:50:28.903Z,101519.34
2022-07-29T18:52:58.425Z,101516.56
2022-07-29T18:55:25.715Z,101523.19
2022-07-29T18:57:55.015Z,101518.81
2022-07-29T19:00:23.881Z,101515.00
2022-07-29T19:02:50.619Z,101514.94
2022-07-29T19:05:17.244Z,101512.31
2022-07-29T19:07:43.999Z,101514.47
2022-07-29T19:10:11.263Z,101517.91
2022-07-29T19:12:38.458Z,101517.44
2022-07-29T19:15:05.249Z,101528.94
2022-07-29T19:17:31.767Z,101519.41
2022-07-29T19:19:58.665Z,101530.47
2022-07-29T19:22:25.608Z,101525.91
2022-07-29T19:24:53.275Z,101529.63
2022-07-29T19:27:20.170Z,101536.16
2022-07-29T19:29:47.295Z,101529.19
2022-07-29T19:32:14.658Z,101529.63
2022-07-29T19:35:10.754Z,101541.97
2022-07-29T19:37:37.541Z,101541.31
2022-07-29T19:40:05.256Z,101539.75
2022-07-29T19:42:31.723Z,101544.81
2022-07-29T19:44:58.934Z,101543.19
2022-07-29T19:47:26.006Z,101540.72
2022-07-29T19:49:53.128Z,101548.81
2022-07-29T19:52:19.760Z,101551.28
2022-07-29T19:54:46.238Z,101553.34
2022-07-29T19:57:12.993Z,101554.47
2022-07-29T19:59:41.088Z,101559.78
2022-07-29T20:02:10.776Z,101554.16
2022-07-29T20:04:37.757Z,101554.59
2022-07-29T20:07:05.070Z,101559.50
2022-07-29T20:09:31.596Z,101550.00
2022-07-29T20:11:58.233Z,101544.34
2022-07-29T20:14:24.734Z,101546.41
2022-07-29T20:16:51.282Z,101542.63
2022-07-29T20:19:17.777Z,101543.88
2022-07-29T20:21:44.325Z,101539.69
2022-07-29T20:24:11.143Z,101540.84
2022-07-29T20:26:37.721Z,101543.34
2022-07-29T20:29:05.361Z,101548.78
2022-07-29T20:31:32.779Z,101548.28
2022-07-29T20:34:01.905Z,101545.97
2022-07-29T20:36:28.700Z,101546.69
2022-07-29T20:38:56.016Z,101534.03
2022-07-29T20:41:22.677Z,101545.44
2022-07-29T20:43:49.874Z,101545.16
2022-07-29T20:46:16.511Z,101547.50
2022-07-29T20:48:43.170Z,101541.63
2022-07-29T20:51:09.729Z,101549.31
2022-07-29T20:53:38.464Z,101546.81
2022-07-29T20:56:05.603Z,101543.66
2022-07-29T20:58:34.037Z,101546.56
2022-07-29T21:01:01.107Z,101550.31
2022-07-29T21:03:27.658Z,101539.13
2022-07-29T21:05:54.170Z,101548.41
2022-07-29T21:08:20.635Z,101546.03
2022-07-29T21:10:47.166Z,101549.50
2022-07-29T21:13:14.384Z,101547.72
2022-07-29T21:15:46.422Z,101548.34
2022-07-29T21:18:27.006Z,101551.47
2022-07-29T21:20:57.736Z,101546.09
2022-07-29T21:23:25.305Z,101545.88
2022-07-29T21:25:52.375Z,101556.84
2022-07-29T21:28:30.423Z,101551.47
2022-07-29T21:30:58.984Z,101556.81
2022-07-29T21:33:29.936Z,101558.94
2022-07-29T21:36:15.996Z,101553.78
2022-07-29T21:38:43.008Z,101550.56
2022-07-29T21:41:12.485Z,101554.41
2022-07-29T21:43:41.869Z,101544.91
2022-07-29T21:46:09.034Z,101555.03
2022-07-29T21:48:36.076Z,101551.69
2022-07-29T21:51:02.641Z,101547.84
2022-07-29T21:53:29.264Z,101552.13
2022-07-29T21:55:57.274Z,101547.13
2022-07-29T21:58:24.701Z,101548.81
2022-07-29T22:00:51.362Z,101551.41
2022-07-29T22:03:17.892Z,101548.97
2022-07-29T22:05:44.926Z,101550.19
2022-07-29T22:08:11.584Z,101548.94
2022-07-29T22:10:38.146Z,101547.19
2022-07-29T22:13:04.683Z,101554.28
2022-07-29T22:15:31.552Z,101555.25
2022-07-29T22:17:58.062Z,101545.88
2022-07-29T22:20:25.072Z,101545.78
2022-07-29T22:22:51.985Z,101541.47
2022-07-29T22:25:18.521Z,101539.66
2022-07-29T22:27:45.228Z,101536.72
2022-07-29T22:30:12.325Z,101536.06
2022-07-29T22:32:38.834Z,101538.56
2022-07-29T22:35:05.663Z,101534.25
2022-07-29T22:37:32.236Z,101531.44
2022-07-29T22:39:58.871Z,101538.34
2022-07-29T22:42:25.614Z,101540.78
2022-07-29T22:44:52.096Z,101537.75
2022-07-29T22:47:18.795Z,101532.63
2022-07-29T22:50:06.831Z,101540.47
2022-07-29T22:52:33.402Z,101531.84
2022-07-29T22:55:00.599Z,101533.38
2022-07-29T22:57:27.097Z,101534.84
2022-07-29T22:59:53.608Z,101535.88
2022-07-29T23:02:20.121Z,101526.63
2022-07-29T23:04:46.588Z,101529.03
2022-07-29T23:07:13.079Z,101535.16
2022-07-29T23:09:39.657Z,101530.84
2022-07-29T23:12:06.473Z,101523.28
2022-07-29T23:14:33.081Z,101519.34
2022-07-29T23:17:00.027Z,101524.50
2022-07-29T23:19:27.376Z,101519.22
2022-07-29T23:21:53.898Z,101523.72
2022-07-29T23:24:20.415Z,101515.69
2022-07-29T23:26:46.917Z,101507.91
2022-07-29T23:29:13.396Z,101511.59
2022-07-29T23:31:42.628Z,101507.75
2022-07-29T23:34:14.640Z,101514.91
2022-07-29T23:36:42.327Z,101508.59
2022-07-29T23:39:13.201Z,101509.50
2022-07-29T23:41:39.830Z,101506.19
2022-07-29T23:44:06.372Z,101505.63
2022-07-29T23:46:32.971Z,101503.16
2022-07-29T23:48:59.926Z,101511.03
2022-07-29T23:51:26.669Z,101505.72
2022-07-29T23:53:54.329Z,101518.09
2022-07-29T23:56:21.278Z,101511.34
2022-07-29T23:58:47.818Z,101513.53
